Time,TemperatureF,DewpointF,PressureIn,WindDirection,WindDirectionDegrees,WindSpeedMPH,WindSpeedGustMPH,Humidity,HourlyPrecipIn,Conditions,Clouds,dailyrainin,SoftwareType,DateUTC
2013-02-28 00:00:00,2.0,-1.0,-100.00,North,-999,-999.0,-999.0,87,-99.99,,,-99.99,,2013-02-28 07:00:00,
2013-02-28 00:32:00,2.0,-1.0,-100.00,North,-999,-999.0,-999.0,87,-99.99,,,-99.99,,2013-02-28 07:32:00,
2013-02-28 00:42:00,2.0,-1.0,-100.00,North,-999,-999.0,-999.0,87,-99.99,,,-99.99,,2013-02-28 07:42:00,
2013-02-28 00:52:00,2.0,-1.0,-100.00,North,-999,-999.0,-999.0,87,-99.99,,,-99.99,,2013-02-28 07:52:00,
2013-02-28 02:00:00,1.0,-2.0,-100.00,North,-999,-999.0,-999.0,86,-99.99,,,-99.99,,2013-02-28 09:00:00,
2013-02-28 02:32:00,1.0,-2.0,-100.00,North,-999,-999.0,-999.0,86,-99.99,,,-99.99,,2013-02-28 09:32:00,
2013-02-28 02:42:00,1.0,-2.0,-100.00,North,-999,-999.0,-999.0,86,-99.99,,,-99.99,,2013-02-28 09:42:00,
2013-02-28 02:52:00,1.0,-2.0,-100.00,North,-999,-999.0,-999.0,86,-99.99,,,-99.99,,2013-02-28 09:52:00,
2013-02-28 03:00:00,2.0,-2.0,-100.00,North,-999,-999.0,-999.0,86,-99.99,,,-99.99,,2013-02-28 10:00:00,
2013-02-28 03:32:00,2.0,-2.0,-100.00,North,-999,-999.0,-999.0,86,-99.99,,,-99.99,,2013-02-28 10:32:00,
2013-02-28 03:42:00,2.0,-2.0,-100.00,North,-999,-999.0,-999.0,86,-99.99,,,-99.99,,2013-02-28 10:42:00,
2013-02-28 03:52:00,2.0,-2.0,-100.00,North,-999,-999.0,-999.0,86,-99.99,,,-99.99,,2013-02-28 10:52:00,
2013-02-28 10:32:00,12.0,9.0,-100.00,North,-999,-999.0,-999.0,84,-99.99,,,-99.99,,2013-02-28 17:32:00,
2013-02-28 10:42:00,12.0,9.0,-100.00,North,-999,-999.0,-999.0,84,-99.99,,,-99.99,,2013-02-28 17:42:00,
2013-02-28 11:32:00,20.0,13.0,-100.00,North,-999,-999.0,-999.0,73,-99.99,,,-99.99,,2013-02-28 18:32:00,
2013-02-28 11:42:00,20.0,13.0,-100.00,North,-999,-999.0,-999.0,73,-99.99,,,-99.99,,2013-02-28 18:42:00,
2013-02-28 12:32:00,23.0,15.0,-100.00,North,-999,-999.0,-999.0,71,-99.99,,,-99.99,,2013-02-28 19:32:00,
2013-02-28 13:32:00,26.0,17.0,-100.00,North,-999,-999.0,-999.0,67,-99.99,,,-99.99,,2013-02-28 20:32:00,
2013-02-28 13:42:00,26.0,17.0,-100.00,North,-999,-999.0,-999.0,67,-99.99,,,-99.99,,2013-02-28 20:42:00,
2013-02-28 13:52:00,26.0,17.0,-100.00,North,-999,-999.0,-999.0,67,-99.99,,,-99.99,,2013-02-28 20:52:00,
2013-02-28 14:00:00,23.0,16.0,-100.00,North,-999,-999.0,-999.0,73,-99.99,,,-99.99,,2013-02-28 21:00:00,
2013-02-28 14:32:00,23.0,16.0,-100.00,North,-999,-999.0,-999.0,73,-99.99,,,-99.99,,2013-02-28 21:32:00,
2013-02-28 14:42:00,23.0,16.0,-100.00,North,-999,-999.0,-999.0,73,-99.99,,,-99.99,,2013-02-28 21:42:00,
2013-02-28 14:52:00,23.0,16.0,-100.00,North,-999,-999.0,-999.0,73,-99.99,,,-99.99,,2013-02-28 21:52:00,
2013-02-28 15:00:00,22.0,16.0,-100.00,North,-999,-999.0,-999.0,77,-99.99,,,-99.99,,2013-02-28 22:00:00,
2013-02-28 15:32:00,22.0,16.0,-100.00,North,-999,-999.0,-999.0,77,-99.99,,,-99.99,,2013-02-28 22:32:00,
2013-02-28 15:42:00,22.0,16.0,-100.00,North,-999,-999.0,-999.0,77,-99.99,,,-99.99,,2013-02-28 22:42:00,
2013-02-28 15:52:00,22.0,16.0,-100.00,North,-999,-999.0,-999.0,77,-99.99,,,-99.99,,2013-02-28 22:52:00,
2013-02-28 16:00:00,21.0,15.0,-100.00,North,-999,-999.0,-999.0,76,-99.99,,,-99.99,,2013-02-28 23:00:00,
2013-02-28 16:32:00,21.0,15.0,-100.00,North,-999,-999.0,-999.0,76,-99.99,,,-99.99,,2013-02-28 23:32:00,
2013-02-28 16:42:00,21.0,15.0,-100.00,North,-999,-999.0,-999.0,76,-99.99,,,-99.99,,2013-02-28 23:42:00,
2013-02-28 16:52:00,21.0,15.0,-100.00,North,-999,-999.0,-999.0,76,-99.99,,,-99.99,,2013-02-28 23:52:00,
2013-02-28 17:00:00,22.0,15.0,-100.00,North,-999,-999.0,-999.0,74,-99.99,,,-99.99,,2013-03-01 00:00:00,
2013-02-28 17:32:00,22.0,15.0,-100.00,North,-999,-999.0,-999.0,74,-99.99,,,-99.99,,2013-03-01 00:32:00,
2013-02-28 17:42:00,22.0,15.0,-100.00,North,-999,-999.0,-999.0,74,-99.99,,,-99.99,,2013-03-01 00:42:00,
2013-02-28 17:52:00,22.0,15.0,-100.00,North,-999,-999.0,-999.0,74,-99.99,,,-99.99,,2013-03-01 00:52:00,
2013-02-28 18:00:00,18.0,13.0,-100.00,North,-999,-999.0,-999.0,81,-99.99,,,-99.99,,2013-03-01 01:00:00,
2013-02-28 18:32:00,18.0,13.0,-100.00,North,-999,-999.0,-999.0,81,-99.99,,,-99.99,,2013-03-01 01:32:00,
2013-02-28 18:42:00,18.0,13.0,-100.00,North,-999,-999.0,-999.0,81,-99.99,,,-99.99,,2013-03-01 01:42:00,
2013-02-28 18:52:00,18.0,13.0,-100.00,North,-999,-999.0,-999.0,81,-99.99,,,-99.99,,2013-03-01 01:52:00,
2013-02-28 19:00:00,13.0,9.0,-100.00,North,-999,-999.0,-999.0,86,-99.99,,,-99.99,,2013-03-01 02:00:00,
2013-02-28 19:32:00,13.0,9.0,-100.00,North,-999,-999.0,-999.0,86,-99.99,,,-99.99,,2013-03-01 02:32:00,
2013-02-28 19:42:00,13.0,9.0,-100.00,North,-999,-999.0,-999.0,86,-99.99,,,-99.99,,2013-03-01 02:42:00,
2013-02-28 19:52:00,13.0,9.0,-100.00,North,-999,-999.0,-999.0,86,-99.99,,,-99.99,,2013-03-01 02:52:00,
2013-02-28 20:00:00,12.0,9.0,-100.00,North,-999,-999.0,-999.0,88,-99.99,,,-99.99,,2013-03-01 03:00:00,
2013-02-28 20:32:00,12.0,9.0,-100.00,North,-999,-999.0,-999.0,88,-99.99,,,-99.99,,2013-03-01 03:32:00,
2013-02-28 20:42:00,12.0,9.0,-100.00,North,-999,-999.0,-999.0,88,-99.99,,,-99.99,,2013-03-01 03:42:00,
2013-02-28 20:52:00,12.0,9.0,-100.00,North,-999,-999.0,-999.0,88,-99.99,,,-99.99,,2013-03-01 03:52:00,
2013-02-28 21:00:00,10.0,8.0,-100.00,North,-999,-999.0,-999.0,89,-99.99,,,-99.99,,2013-03-01 04:00:00,
2013-02-28 21:32:00,10.0,8.0,-100.00,North,-999,-999.0,-999.0,89,-99.99,,,-99.99,,2013-03-01 04:32:00,
2013-02-28 21:42:00,10.0,8.0,-100.00,North,-999,-999.0,-999.0,89,-99.99,,,-99.99,,2013-03-01 04:42:00,
2013-02-28 21:52:00,10.0,8.0,-100.00,North,-999,-999.0,-999.0,89,-99.99,,,-99.99,,2013-03-01 04:52:00,
2013-02-28 22:00:00,11.0,9.0,-100.00,North,-999,-999.0,-999.0,90,-99.99,,,-99.99,,2013-03-01 05:00:00,
2013-02-28 22:33:00,11.0,9.0,-100.00,North,-999,-999.0,-999.0,90,-99.99,,,-99.99,,2013-03-01 05:33:00,
2013-02-28 22:42:00,11.0,9.0,-100.00,North,-999,-999.0,-999.0,90,-99.99,,,-99.99,,2013-03-01 05:42:00,
2013-02-28 22:52:00,11.0,9.0,-100.00,North,-999,-999.0,-999.0,90,-99.99,,,-99.99,,2013-03-01 05:52:00,
2013-02-28 23:00:00,10.0,8.0,-100.00,North,-999,-999.0,-999.0,90,-99.99,,,-99.99,,2013-03-01 06:00:00,
2013-02-28 23:32:00,10.0,8.0,-100.00,North,-999,-999.0,-999.0,90,-99.99,,,-99.99,,2013-03-01 06:32:00,
2013-02-28 23:42:00,10.0,8.0,-100.00,North,-999,-999.0,-999.0,90,-99.99,,,-99.99,,2013-03-01 06:42:00,
2013-02-28 23:52:00,10.0,8.0,-100.00,North,-999,-999.0,-999.0,90,-99.99,,,-99.99,,2013-03-01 06:52:00,